Time;durP1;ratioP1;P1;durP2;ratioP2;P2;SDS_P1;SDS_P2;PMS_P1;PMS_P2;Temp;Humidity;BMP_temperature;BMP_pressure;BME280_temperature;BME280_humidity;BME280_pressure;Samples;Min_cycle;Max_cycle;Signal;HPM_P1;HPM_P2
2022/11/01 00:02:24;;;;;;;26.33;17.20;;;;;;;11.09;100.00;99992.78;5025543;28;20234;-71
2022/11/01 00:04:49;;;;;;;21.47;17.60;;;;;;;11.03;100.00;99985.41;5050216;28;20192;-70
2022/11/01 00:07:14;;;;;;;24.60;16.70;;;;;;;10.98;100.00;99983.91;5053820;28;20648;-70
2022/11/01 00:09:40;;;;;;;21.07;16.20;;;;;;;10.90;100.00;99988.69;5054789;28;20186;-70
2022/11/01 00:12:05;;;;;;;19.63;15.17;;;;;;;11.05;100.00;99986.13;5052144;28;20229;-71
2022/11/01 00:14:30;;;;;;;20.73;15.97;;;;;;;11.10;100.00;99991.84;5049778;28;20536;-70
2022/11/01 00:16:56;;;;;;;25.17;15.90;;;;;;;11.04;100.00;99987.03;5042408;28;20241;-71
2022/11/01 00:19:21;;;;;;;21.77;17.37;;;;;;;10.77;100.00;99990.31;5048540;28;20177;-70
2022/11/01 00:21:46;;;;;;;22.43;16.40;;;;;;;10.84;100.00;99991.63;5042492;28;20312;-70
2022/11/01 00:24:12;;;;;;;18.07;15.13;;;;;;;11.03;100.00;99993.13;5047484;28;20290;-69
2022/11/01 00:26:37;;;;;;;22.27;17.40;;;;;;;11.14;100.00;99985.59;5053220;28;20193;-70
2022/11/01 00:29:03;;;;;;;25.30;17.00;;;;;;;11.06;100.00;99985.22;5053793;28;20193;-70
2022/11/01 00:31:28;;;;;;;22.50;17.07;;;;;;;11.22;100.00;99992.88;5033080;28;20307;-69
2022/11/01 00:33:53;;;;;;;18.40;15.60;;;;;;;11.22;100.00;99995.44;5057604;28;20181;-70
2022/11/01 00:36:19;;;;;;;23.63;18.77;;;;;;;11.26;100.00;99984.88;5052781;28;20225;-70
2022/11/01 00:38:48;;;;;;;27.43;19.13;;;;;;;11.21;100.00;99973.19;5053820;28;20190;-69
2022/11/01 00:41:14;;;;;;;23.30;17.97;;;;;;;11.17;100.00;99982.84;5034959;28;20225;-70
2022/11/01 00:43:39;;;;;;;25.10;19.73;;;;;;;11.01;100.00;99977.75;5059777;28;20185;-69
2022/11/01 00:46:05;;;;;;;46.40;41.27;;;;;;;10.90;100.00;99972.41;5060573;28;20186;-69
2022/11/01 00:48:30;;;;;;;43.87;37.80;;;;;;;11.00;100.00;99964.97;5052731;28;20207;-71
2022/11/01 00:50:56;;;;;;;46.17;34.47;;;;;;;11.09;100.00;99967.03;5049886;28;20233;-70
2022/11/01 00:53:21;;;;;;;37.43;31.40;;;;;;;11.21;100.00;99958.59;5056630;28;20177;-70
2022/11/01 00:55:47;;;;;;;40.00;33.27;;;;;;;11.27;100.00;99953.03;5053604;28;20266;-69
2022/11/01 00:58:12;;;;;;;37.13;27.67;;;;;;;11.28;100.00;99946.97;5061067;28;20181;-70
2022/11/01 01:00:38;;;;;;;38.10;29.77;;;;;;;11.16;100.00;99950.28;5047524;28;20675;-69
2022/11/01 01:03:04;;;;;;;32.10;25.13;;;;;;;11.29;100.00;99945.25;5063590;28;20584;-69
2022/11/01 01:05:30;;;;;;;29.37;22.23;;;;;;;11.28;100.00;99936.69;5068687;28;20177;-69
2022/11/01 01:07:56;;;;;;;30.60;25.27;;;;;;;11.36;100.00;99935.38;5067848;28;20185;-71
2022/11/01 01:10:21;;;;;;;28.37;23.93;;;;;;;11.35;100.00;99931.16;5049288;28;20260;-70
2022/11/01 01:12:46;;;;;;;28.83;23.70;;;;;;;11.36;100.00;99936.25;5048981;28;20189;-69
2022/11/01 01:15:12;;;;;;;32.87;22.00;;;;;;;11.32;100.00;99931.34;5052753;28;20185;-69
2022/11/01 01:17:37;;;;;;;27.93;22.17;;;;;;;11.34;100.00;99916.63;5052510;28;20184;-69
2022/11/01 01:20:03;;;;;;;33.30;21.40;;;;;;;11.28;100.00;99928.94;5047332;28;20181;-69
2022/11/01 01:22:29;;;;;;;24.70;20.17;;;;;;;11.36;100.00;99922.50;5067824;28;20209;-69
2022/11/01 01:24:54;;;;;;;23.57;18.80;;;;;;;11.23;100.00;99935.31;5052542;28;20201;-69
2022/11/01 01:27:20;;;;;;;26.67;19.97;;;;;;;11.20;100.00;99933.75;5052265;28;20184;-69
2022/11/01 01:29:45;;;;;;;26.83;20.20;;;;;;;11.06;100.00;99931.16;5052675;28;20208;-70
2022/11/01 01:32:13;;;;;;;30.17;20.87;;;;;;;11.09;100.00;99923.28;5057354;28;20598;-70
2022/11/01 01:34:38;;;;;;;23.43;19.70;;;;;;;11.22;100.00;99923.34;5022318;28;20198;-69
2022/11/01 01:37:04;;;;;;;26.53;19.73;;;;;;;11.20;100.00;99932.91;5042190;28;20229;-69
2022/11/01 01:39:29;;;;;;;22.60;19.20;;;;;;;11.13;100.00;99937.59;5052338;28;20221;-69
2022/11/01 01:41:54;;;;;;;26.73;19.03;;;;;;;11.11;100.00;99931.72;5056434;28;20279;-70
2022/11/01 01:44:49;;;;;;;22.93;18.10;;;;;;;11.10;100.00;99930.06;5053167;28;20181;-69
2022/11/01 01:47:25;;;;;;;25.97;18.73;;;;;;;10.96;100.00;99929.16;5041725;28;20224;-69
2022/11/01 01:50:13;;;;;;;20.77;16.97;;;;;;;10.92;100.00;99926.84;5065969;28;20600;-70
2022/11/01 01:52:55;;;;;;;25.07;17.20;;;;;;;11.17;100.00;99935.69;4999197;28;20627;-69
2022/11/01 01:55:27;;;;;;;25.07;15.87;;;;;;;11.33;100.00;99930.44;5052310;28;20224;-70
2022/11/01 01:57:55;;;;;;;32.03;17.93;;;;;;;11.36;100.00;99937.97;5070256;28;20543;-70
2022/11/01 02:00:21;;;;;;;26.03;17.13;;;;;;;11.25;100.00;99939.44;5026434;28;20181;-69
2022/11/01 02:02:46;;;;;;;20.80;16.53;;;;;;;11.26;100.00;99930.81;5065076;28;20200;-70
2022/11/01 02:05:23;;;;;;;21.67;16.30;;;;;;;11.35;100.00;99926.00;5051866;28;20259;-70
2022/11/01 02:07:49;;;;;;;23.87;18.27;;;;;;;11.37;100.00;99914.69;5066491;28;20197;-69
2022/11/01 02:10:15;;;;;;;21.03;17.40;;;;;;;11.41;100.00;99918.75;5047096;28;20185;-69
2022/11/01 02:12:45;;;;;;;24.03;17.50;;;;;;;11.21;100.00;99922.53;5065561;28;20801;-77
2022/11/01 02:15:12;;;;;;;22.67;16.73;;;;;;;11.28;100.00;99925.56;5067325;28;20231;-70
2022/11/01 02:18:10;;;;;;;25.50;18.43;;;;;;;11.11;100.00;99921.41;5051150;28;20246;-69
2022/11/01 02:21:11;;;;;;;26.03;18.90;;;;;;;11.13;100.00;99930.69;5028028;28;20594;-69
2022/11/01 02:24:14;;;;;;;21.23;16.67;;;;;;;11.23;100.00;99925.84;5034310;28;20703;-69
2022/11/01 02:27:10;;;;;;;28.47;17.43;;;;;;;11.23;100.00;99917.28;5033331;28;20184;-70
2022/11/01 02:29:41;;;;;;;20.13;17.30;;;;;;;11.16;100.00;99923.72;5067169;28;20358;-71
2022/11/01 02:32:24;;;;;;;22.10;17.20;;;;;;;11.34;100.00;99922.63;5056292;28;20248;-70
2022/11/01 02:34:56;;;;;;;18.43;16.27;;;;;;;11.41;100.00;99916.19;5033688;28;20259;-69
2022/11/01 02:37:34;;;;;;;29.13;17.93;;;;;;;11.36;100.00;99918.22;5033111;28;20660;-69
2022/11/01 02:40:04;;;;;;;20.80;18.10;;;;;;;11.46;100.00;99921.88;5067026;28;20173;-69
2022/11/01 02:42:42;;;;;;;22.20;17.57;;;;;;;11.26;100.00;99924.81;5007005;28;20244;-69
2022/11/01 02:45:26;;;;;;;20.70;17.60;;;;;;;11.28;100.00;99928.94;5036158;28;21570;-69
2022/11/01 02:47:52;;;;;;;25.70;17.53;;;;;;;11.42;100.00;99912.69;5052239;28;20246;-70
2022/11/01 02:50:18;;;;;;;20.00;17.10;;;;;;;11.34;100.00;99914.88;5024982;28;20568;-70
2022/11/01 02:52:44;;;;;;;25.43;18.10;;;;;;;11.40;100.00;99909.38;5063666;28;20178;-70
2022/11/01 02:55:32;;;;;;;23.20;18.33;;;;;;;11.43;100.00;99903.19;5050823;28;20208;-69
2022/11/01 02:58:27;;;;;;;21.27;17.70;;;;;;;11.32;100.00;99914.16;5059593;28;20177;-70
2022/11/01 03:00:54;;;;;;;24.07;18.63;;;;;;;11.48;100.00;99923.53;5047405;28;20233;-70
2022/11/01 03:03:26;;;;;;;24.23;16.30;;;;;;;11.30;100.00;99934.84;5042532;28;20177;-69
2022/11/01 03:06:09;;;;;;;27.17;16.90;;;;;;;11.32;100.00;99947.63;5057318;28;20260;-70
2022/11/01 03:08:42;;;;;;;24.10;16.43;;;;;;;11.34;100.00;99950.94;5032632;28;20555;-69
2022/11/01 03:11:16;;;;;;;25.00;18.17;;;;;;;11.19;100.00;99960.41;5053345;28;20317;-70
2022/11/01 03:14:08;;;;;;;17.83;15.30;;;;;;;11.11;100.00;99963.44;5020147;28;20255;-70
2022/11/01 03:16:37;;;;;;;26.87;17.63;;;;;;;11.29;100.00;99971.81;5043503;28;20296;-70
2022/11/01 03:19:31;;;;;;;25.47;17.27;;;;;;;11.41;100.00;99975.41;5049498;28;20316;-70
2022/11/01 03:22:02;;;;;;;26.93;17.20;;;;;;;11.58;100.00;99968.41;5055607;28;20533;-70
2022/11/01 03:24:33;;;;;;;24.50;17.97;;;;;;;11.56;100.00;99968.50;5066447;28;20193;-71
2022/11/01 03:27:05;;;;;;;20.17;15.77;;;;;;;11.60;100.00;99962.22;5032588;28;20642;-74
2022/11/01 03:29:32;;;;;;;29.03;17.23;;;;;;;11.58;100.00;99956.34;5050990;28;20648;-70
2022/11/01 03:32:01;;;;;;;30.53;17.97;;;;;;;11.43;100.00;99965.00;5056077;28;20298;-71
2022/11/01 03:34:28;;;;;;;22.57;18.40;;;;;;;11.40;100.00;99963.44;5050872;28;20636;-69
2022/11/01 03:36:59;;;;;;;21.60;19.07;;;;;;;11.26;100.00;99966.00;5050124;28;20692;-68
2022/11/01 03:39:30;;;;;;;28.20;18.90;;;;;;;11.18;100.00;99965.66;5032930;28;20170;-68
2022/11/01 03:42:01;;;;;;;27.30;18.77;;;;;;;11.02;100.00;99971.69;5055810;28;20233;-69
2022/11/01 03:44:33;;;;;;;27.60;19.03;;;;;;;11.06;100.00;99965.44;5065994;28;20174;-69
2022/11/01 03:46:58;;;;;;;27.20;20.50;;;;;;;11.14;100.00;99972.72;5052539;28;20672;-68
2022/11/01 03:49:23;;;;;;;25.97;19.80;;;;;;;11.04;100.00;99963.88;5050639;28;20197;-69
2022/11/01 03:51:48;;;;;;;23.73;19.87;;;;;;;10.93;100.00;99973.06;5055868;28;20291;-69
2022/11/01 03:54:14;;;;;;;28.67;20.90;;;;;;;11.01;100.00;99984.66;5065582;28;20268;-69
2022/11/01 03:56:39;;;;;;;27.70;20.70;;;;;;;11.04;100.00;99985.31;5033382;28;20236;-69
2022/11/01 03:59:06;;;;;;;28.30;20.87;;;;;;;11.18;100.00;99993.97;5040375;28;20174;-69
2022/11/01 04:01:32;;;;;;;23.43;20.23;;;;;;;11.16;100.00;100003.53;5041449;28;20216;-69
2022/11/01 04:03:57;;;;;;;28.17;20.90;;;;;;;11.23;100.00;100004.84;5054852;28;20247;-69
2022/11/01 04:06:23;;;;;;;26.57;20.27;;;;;;;11.07;100.00;100015.19;5050523;28;20264;-69
2022/11/01 04:08:48;;;;;;;26.83;19.57;;;;;;;11.19;100.00;100003.34;5054480;28;20178;-69
2022/11/01 04:11:13;;;;;;;26.20;21.83;;;;;;;11.33;100.00;100007.69;5057118;28;20232;-69
2022/11/01 04:13:39;;;;;;;28.40;19.47;;;;;;;11.32;100.00;100017.16;5060514;28;20185;-69
2022/11/01 04:21:33;;;;;;;23.63;18.93;;;;;;;11.34;100.00;100011.91;5055261;28;20232;-68
2022/11/01 04:23:58;;;;;;;25.10;19.70;;;;;;;11.46;100.00;100012.03;5040375;28;20177;-69
2022/11/01 04:26:23;;;;;;;21.97;18.00;;;;;;;11.49;100.00;100010.19;5053222;28;20181;-69
2022/11/01 04:28:55;;;;;;;27.67;20.07;;;;;;;11.49;100.00;100013.59;5053569;28;20556;-68
2022/11/01 04:31:30;;;;;;;29.23;19.23;;;;;;;11.30;100.00;100019.00;5033130;28;20224;-69
2022/11/01 04:33:56;;;;;;;24.97;18.83;;;;;;;11.36;100.00;100013.50;5039819;28;20180;-67
2022/11/01 04:36:22;;;;;;;26.50;18.67;;;;;;;11.55;100.00;100013.22;5034965;28;20564;-68
2022/11/01 04:38:49;;;;;;;27.50;18.77;;;;;;;11.61;100.00;100017.19;5053572;28;20185;-68
2022/11/01 04:41:18;;;;;;;19.53;17.33;;;;;;;11.45;100.00;100018.09;5035018;28;20657;-67
2022/11/01 04:43:45;;;;;;;24.67;18.50;;;;;;;11.65;100.00;100028.09;5041067;28;20173;-66
2022/11/01 04:46:11;;;;;;;25.37;17.53;;;;;;;11.71;100.00;100036.31;5038035;28;20223;-66
2022/11/01 04:48:36;;;;;;;26.73;17.90;;;;;;;11.74;100.00;100033.53;5053082;28;20217;-66
2022/11/01 04:51:02;;;;;;;24.60;17.87;;;;;;;11.85;100.00;100035.47;5050651;28;20721;-67
2022/11/01 04:53:28;;;;;;;33.20;19.70;;;;;;;11.89;100.00;100034.34;5061287;28;20185;-67
2022/11/01 04:55:54;;;;;;;26.70;18.70;;;;;;;11.90;100.00;100033.44;5035219;28;20173;-68
2022/11/01 04:58:19;;;;;;;26.43;19.77;;;;;;;11.80;100.00;100040.06;5067688;28;20201;-67
2022/11/01 05:00:44;;;;;;;24.47;19.73;;;;;;;11.85;100.00;100043.19;5058123;28;20672;-67
2022/11/01 05:03:10;;;;;;;25.47;19.43;;;;;;;11.90;100.00;100038.59;5052227;28;20187;-67
2022/11/01 05:05:35;;;;;;;23.93;20.53;;;;;;;11.92;100.00;100047.06;5053294;28;20193;-67
2022/11/01 05:08:07;;;;;;;25.93;19.90;;;;;;;11.92;100.00;100038.47;5052435;28;20239;-67
2022/11/01 05:10:34;;;;;;;26.23;19.23;;;;;;;11.76;100.00;100041.19;5032727;28;20298;-67
2022/11/01 05:13:00;;;;;;;27.87;19.80;;;;;;;11.78;100.00;100042.75;5046956;28;20169;-67
2022/11/01 05:15:26;;;;;;;27.27;21.07;;;;;;;11.63;100.00;100051.38;5068464;28;20655;-66
2022/11/01 05:17:51;;;;;;;24.70;20.27;;;;;;;11.76;100.00;100049.75;5052044;28;20181;-67
2022/11/01 05:20:17;;;;;;;23.30;19.63;;;;;;;11.82;100.00;100053.72;5044190;28;20670;-67
2022/11/01 05:22:42;;;;;;;29.77;21.10;;;;;;;11.91;100.00;100052.31;5049383;28;20197;-67
2022/11/01 05:25:10;;;;;;;24.03;18.60;;;;;;;11.97;100.00;100058.88;5034681;28;20184;-66
2022/11/01 05:27:37;;;;;;;34.40;21.90;;;;;;;12.07;100.00;100057.41;5034093;28;20178;-67
2022/11/01 05:30:03;;;;;;;27.93;20.77;;;;;;;12.07;100.00;100062.56;5032557;28;20276;-73
2022/11/01 05:32:29;;;;;;;27.57;21.27;;;;;;;12.08;100.00;100077.06;5050906;28;20189;-66
2022/11/01 05:34:54;;;;;;;29.60;20.87;;;;;;;11.88;100.00;100073.13;5052566;28;20200;-66
2022/11/01 05:37:19;;;;;;;27.60;20.63;;;;;;;11.79;100.00;100074.50;5051891;28;20199;-66
2022/11/01 05:39:45;;;;;;;29.10;20.47;;;;;;;11.75;100.00;100065.31;5052046;28;20177;-67
2022/11/01 05:42:10;;;;;;;21.87;18.77;;;;;;;11.65;100.00;100070.16;5026782;28;20589;-67
2022/11/01 05:44:35;;;;;;;28.63;19.67;;;;;;;11.37;100.00;100066.63;5052015;28;20326;-67
2022/11/01 05:47:04;;;;;;;28.63;19.40;;;;;;;11.46;100.00;100070.41;5059170;28;20186;-67
2022/11/01 05:49:31;;;;;;;29.43;19.87;;;;;;;11.53;100.00;100081.19;5067534;28;20177;-67
2022/11/01 05:51:56;;;;;;;23.43;19.90;;;;;;;11.70;100.00;100087.94;5057221;28;20287;-67
2022/11/01 05:54:22;;;;;;;23.43;18.67;;;;;;;11.73;100.00;100090.31;5051977;28;20193;-67
2022/11/01 05:56:47;;;;;;;21.10;18.27;;;;;;;11.84;100.00;100077.63;5053672;28;20197;-67
2022/11/01 05:59:12;;;;;;;30.67;20.73;;;;;;;11.85;100.00;100088.78;5040661;28;20189;-67
2022/11/01 06:01:38;;;;;;;24.50;20.20;;;;;;;11.78;100.00;100090.88;5036900;28;20227;-67
2022/11/01 06:04:03;;;;;;;25.10;18.90;;;;;;;11.80;100.00;100096.78;5054930;28;20204;-67
2022/11/01 06:06:29;;;;;;;23.10;19.57;;;;;;;11.77;100.00;100092.63;5051442;28;20181;-67
2022/11/01 06:08:56;;;;;;;24.50;19.70;;;;;;;11.74;100.00;100102.28;5033738;28;20535;-68
2022/11/01 06:11:23;;;;;;;26.40;20.93;;;;;;;11.61;100.00;100102.19;5037790;28;20233;-68
2022/11/01 06:13:55;;;;;;;24.37;20.53;;;;;;;11.58;100.00;100099.78;5039339;28;20180;-68
2022/11/01 06:16:22;;;;;;;24.03;20.27;;;;;;;11.66;100.00;100107.91;5051343;28;20181;-69
2022/11/01 06:18:47;;;;;;;30.10;21.00;;;;;;;11.63;100.00;100114.06;5033754;28;20192;-68
2022/11/01 06:21:13;;;;;;;24.20;21.43;;;;;;;11.57;100.00;100111.00;5050775;28;20551;-67
2022/11/01 06:23:38;;;;;;;27.00;20.13;;;;;;;11.61;100.00;100115.91;5057703;28;20181;-67
2022/11/01 06:26:04;;;;;;;27.77;20.93;;;;;;;11.67;100.00;100109.56;5033445;28;20235;-67
2022/11/01 06:28:30;;;;;;;25.33;20.10;;;;;;;11.64;100.00;100114.88;5033052;28;20180;-67
2022/11/01 06:30:59;;;;;;;29.27;21.10;;;;;;;11.65;100.00;100128.59;5047948;28;20216;-67
2022/11/01 06:33:24;;;;;;;28.20;20.47;;;;;;;11.74;100.00;100128.88;5042332;28;20185;-67
2022/11/01 06:35:50;;;;;;;26.00;20.67;;;;;;;11.79;100.00;100138.91;5051317;28;20995;-67
2022/11/01 06:38:15;;;;;;;25.33;20.97;;;;;;;11.84;100.00;100131.75;5050526;28;20200;-67
2022/11/01 06:40:40;;;;;;;31.20;21.90;;;;;;;11.90;100.00;100136.53;5023540;28;20240;-67
2022/11/01 06:43:06;;;;;;;30.27;21.67;;;;;;;11.94;100.00;100143.19;5061949;28;20272;-68
2022/11/01 06:45:32;;;;;;;30.53;23.07;;;;;;;11.91;100.00;100148.50;5057456;28;20177;-69
2022/11/01 06:47:57;;;;;;;31.80;22.13;;;;;;;11.97;100.00;100152.50;5033311;28;20283;-68
2022/11/01 06:50:23;;;;;;;27.10;20.73;;;;;;;12.02;100.00;100147.06;5037582;28;20214;-68
2022/11/01 06:52:48;;;;;;;27.10;21.10;;;;;;;11.83;100.00;100150.69;5038846;28;20216;-68
2022/11/01 06:55:14;;;;;;;32.20;22.03;;;;;;;12.00;100.00;100159.22;5032339;28;20221;-68
2022/11/01 06:57:40;;;;;;;24.27;21.43;;;;;;;11.96;100.00;100153.44;5030094;28;20216;-68
2022/11/01 07:00:07;;;;;;;27.50;21.07;;;;;;;11.83;100.00;100155.84;5040315;28;20212;-67
2022/11/01 07:02:32;;;;;;;25.70;20.30;;;;;;;11.81;100.00;100160.28;5024366;28;20269;-68
2022/11/01 07:04:57;;;;;;;22.50;19.80;;;;;;;11.92;100.00;100173.38;5047715;28;20185;-68
2022/11/01 07:07:23;;;;;;;24.63;21.10;;;;;;;11.95;100.00;100162.88;5047420;28;20282;-68
2022/11/01 07:09:48;;;;;;;26.53;20.73;;;;;;;11.78;100.00;100157.88;5050586;28;20181;-68
2022/11/01 07:12:13;;;;;;;22.53;18.80;;;;;;;11.84;100.00;100162.66;5027158;28;20297;-68
2022/11/01 07:14:38;;;;;;;27.23;20.83;;;;;;;12.06;100.00;100164.84;5050444;28;20173;-67
2022/11/01 07:17:04;;;;;;;23.20;19.20;;;;;;;12.11;100.00;100174.88;5050289;28;20227;-67
2022/11/01 07:19:29;;;;;;;24.47;19.63;;;;;;;12.13;100.00;100185.94;5050482;28;20636;-67
2022/11/01 07:21:54;;;;;;;21.77;19.07;;;;;;;12.14;100.00;100176.44;5012683;28;20320;-67
2022/11/01 07:24:20;;;;;;;27.00;18.70;;;;;;;11.94;100.00;100174.13;5046225;28;20257;-69
2022/11/01 07:26:45;;;;;;;24.20;18.40;;;;;;;12.10;100.00;100183.53;5031806;28;20169;-69
2022/11/01 07:29:10;;;;;;;23.20;18.70;;;;;;;12.29;100.00;100182.44;5050492;28;20193;-69
2022/11/01 07:31:37;;;;;;;20.27;17.10;;;;;;;12.46;100.00;100184.00;5016770;28;20229;-69
2022/11/01 07:34:03;;;;;;;25.10;16.63;;;;;;;12.50;100.00;100183.72;5032217;28;20269;-70
2022/11/01 07:36:28;;;;;;;23.27;19.00;;;;;;;12.88;100.00;100190.81;5031410;28;20316;-68
2022/11/01 07:38:54;;;;;;;24.60;17.57;;;;;;;13.04;100.00;100185.50;5050050;28;20253;-69
2022/11/01 07:41:19;;;;;;;22.40;18.00;;;;;;;13.12;100.00;100187.59;5035698;28;20313;-68
2022/11/01 07:43:44;;;;;;;20.90;18.03;;;;;;;13.24;100.00;100197.16;5046024;28;20177;-69
2022/11/01 07:46:09;;;;;;;20.73;18.03;;;;;;;13.31;100.00;100204.50;5054791;28;20182;-69
2022/11/01 07:48:35;;;;;;;21.93;17.10;;;;;;;13.32;100.00;100201.84;5035688;28;20181;-69
2022/11/01 07:51:03;;;;;;;19.23;17.03;;;;;;;13.34;100.00;100204.31;5037770;28;20257;-68
2022/11/01 07:53:28;;;;;;;22.17;17.23;;;;;;;13.33;100.00;100207.81;5051407;28;20712;-67
2022/11/01 07:55:54;;;;;;;22.57;17.23;;;;;;;13.28;100.00;100204.72;5054272;28;20181;-68
2022/11/01 07:58:19;;;;;;;22.43;17.33;;;;;;;13.26;100.00;100210.00;5061867;28;20264;-68
2022/11/01 08:00:45;;;;;;;19.93;17.30;;;;;;;13.48;100.00;100213.78;5033771;28;20691;-68
2022/11/01 08:03:13;;;;;;;21.97;16.33;;;;;;;13.75;100.00;100225.84;5038122;28;20185;-67
2022/11/01 08:05:42;;;;;;;20.03;16.60;;;;;;;13.80;100.00;100221.19;5035541;28;20185;-68
2022/11/01 08:08:08;;;;;;;21.33;16.27;;;;;;;13.71;100.00;100207.94;5051770;28;20240;-68
2022/11/01 08:10:34;;;;;;;16.07;14.47;;;;;;;13.70;100.00;100218.38;5033247;28;20712;-68
2022/11/01 08:13:06;;;;;;;18.10;16.27;;;;;;;13.74;100.00;100217.25;5019310;28;20182;-68
2022/11/01 08:15:32;;;;;;;16.60;14.80;;;;;;;13.83;100.00;100214.06;5043734;28;20275;-69
2022/11/01 08:17:58;;;;;;;20.03;15.30;;;;;;;14.00;100.00;100218.13;5035219;28;20201;-68
2022/11/01 08:20:26;;;;;;;19.87;15.27;;;;;;;14.13;100.00;100222.47;5043003;28;20244;-58
2022/11/01 08:22:52;;;;;;;19.33;14.77;;;;;;;14.04;100.00;100218.72;5052744;28;20205;-68
2022/11/01 08:25:17;;;;;;;18.20;15.60;;;;;;;14.15;100.00;100215.41;5021989;28;20176;-69
2022/11/01 08:27:43;;;;;;;17.77;13.27;;;;;;;14.14;100.00;100218.94;5053310;28;20173;-68
2022/11/01 08:30:09;;;;;;;17.30;13.67;;;;;;;14.37;100.00;100225.13;5005104;28;20590;-68
2022/11/01 08:32:34;;;;;;;12.97;10.73;;;;;;;14.47;100.00;100233.09;5051858;28;20181;-70
2022/11/01 08:35:00;;;;;;;9.97;8.03;;;;;;;14.62;100.00;100234.59;5034996;28;20196;-70
2022/11/01 08:37:25;;;;;;;9.37;6.70;;;;;;;14.81;100.00;100244.56;5034825;28;20209;-67
2022/11/01 08:39:50;;;;;;;9.07;5.53;;;;;;;15.01;100.00;100250.09;5035326;28;20181;-67
2022/11/01 08:42:16;;;;;;;8.67;4.93;;;;;;;15.18;100.00;100256.66;5040310;28;20255;-68
2022/11/01 08:44:41;;;;;;;9.03;5.50;;;;;;;15.28;100.00;100259.41;5047656;28;20190;-69
2022/11/01 08:47:07;;;;;;;10.03;6.00;;;;;;;15.41;100.00;100272.34;5058850;28;20327;-71
2022/11/01 08:49:33;;;;;;;8.60;5.07;;;;;;;15.53;100.00;100265.41;5033865;28;20189;-69
2022/11/01 08:51:58;;;;;;;6.53;4.67;;;;;;;15.85;100.00;100272.63;5033547;28;20222;-68
2022/11/01 08:54:23;;;;;;;5.60;4.43;;;;;;;16.39;100.00;100266.00;5030736;28;20217;-69
2022/11/01 08:56:48;;;;;;;6.47;4.17;;;;;;;16.72;100.00;100261.75;5052540;28;20165;-69
2022/11/01 08:59:14;;;;;;;8.23;3.80;;;;;;;16.55;100.00;100261.28;5052162;28;20286;-70
2022/11/01 09:01:39;;;;;;;9.10;3.30;;;;;;;16.87;100.00;100257.97;5041948;28;20222;-69
2022/11/01 09:04:05;;;;;;;6.77;3.40;;;;;;;17.40;100.00;100262.47;5052072;28;20181;-70
2022/11/01 09:06:30;;;;;;;5.63;3.30;;;;;;;18.13;100.00;100266.13;5051974;28;20192;-69
2022/11/01 09:08:56;;;;;;;7.60;4.67;;;;;;;18.42;100.00;100268.88;5052917;28;20213;-69
2022/11/01 09:11:24;;;;;;;6.67;4.03;;;;;;;18.77;100.00;100272.03;5041903;28;20736;-73
2022/11/01 09:13:50;;;;;;;6.87;3.17;;;;;;;18.28;100.00;100269.22;5014801;28;20174;-72
2022/11/01 09:16:15;;;;;;;3.33;2.20;;;;;;;18.52;100.00;100274.97;5016722;28;20170;-71
2022/11/01 09:18:41;;;;;;;7.23;2.37;;;;;;;17.95;100.00;100276.28;5052329;28;20189;-69
2022/11/01 09:21:07;;;;;;;6.40;1.90;;;;;;;18.42;100.00;100276.69;5024662;28;20243;-72
2022/11/01 09:23:34;;;;;;;5.27;2.10;;;;;;;18.46;100.00;100279.88;5046850;28;20640;-72
2022/11/01 09:26:05;;;;;;;4.57;1.87;;;;;;;18.55;100.00;100281.69;5026961;28;20169;-72
2022/11/01 09:28:31;;;;;;;2.93;1.80;;;;;;;18.20;100.00;100280.28;5030886;28;20231;-71
2022/11/01 09:31:01;;;;;;;3.83;1.83;;;;;;;17.52;100.00;100289.22;5022676;28;20224;-71
2022/11/01 09:33:26;;;;;;;9.63;2.10;;;;;;;17.25;100.00;100287.91;5030089;28;20291;-72
2022/11/01 09:35:52;;;;;;;3.10;1.73;;;;;;;17.12;100.00;100282.03;5052099;28;20312;-72
2022/11/01 09:38:18;;;;;;;6.67;1.70;;;;;;;17.27;100.00;100277.41;5033561;28;20177;-73
2022/11/01 09:40:46;;;;;;;3.13;1.33;;;;;;;17.93;100.00;100291.19;5041450;28;20256;-72
2022/11/01 09:43:21;;;;;;;4.00;1.63;;;;;;;18.68;100.00;100286.66;5023069;28;20182;-72
2022/11/01 09:45:50;;;;;;;3.80;1.63;;;;;;;18.97;98.27;100293.78;5041297;28;20592;-70
2022/11/01 09:48:16;;;;;;;3.50;1.37;;;;;;;18.13;100.00;100287.78;5033613;28;20586;-70
2022/11/01 09:50:42;;;;;;;2.60;1.17;;;;;;;18.51;100.00;100295.94;5018624;28;20308;-71
2022/11/01 09:53:16;;;;;;;4.10;1.20;;;;;;;18.10;98.87;100301.06;5028762;28;20186;-71
2022/11/01 09:55:56;;;;;;;4.03;1.43;;;;;;;17.48;95.44;100303.44;5023712;28;20202;-71
2022/11/01 09:58:41;;;;;;;3.93;1.50;;;;;;;16.87;97.45;100304.72;5049437;28;20459;-72
2022/11/01 10:01:37;;;;;;;7.43;1.70;;;;;;;16.83;97.42;100310.28;5028872;28;20264;-71
2022/11/01 10:04:21;;;;;;;5.10;1.43;;;;;;;16.81;99.48;100313.00;5041977;28;20180;-60
2022/11/01 10:07:10;;;;;;;2.30;1.03;;;;;;;16.25;100.00;100317.19;5051082;28;20182;-61
2022/11/01 10:09:51;;;;;;;4.93;1.47;;;;;;;16.13;100.00;100331.09;5052451;28;20246;-61
2022/11/01 10:12:34;;;;;;;1.40;1.03;;;;;;;16.12;100.00;100330.28;5037252;28;20833;-60
2022/11/01 10:15:09;;;;;;;3.10;0.93;;;;;;;16.01;100.00;100330.22;5051725;28;20181;-61
2022/11/01 10:17:40;;;;;;;2.60;1.03;;;;;;;15.95;100.00;100330.69;5046934;28;20194;-62
2022/11/01 10:20:10;;;;;;;4.90;1.27;;;;;;;15.88;100.00;100326.91;5022648;28;20568;-62
2022/11/01 10:22:37;;;;;;;4.60;1.00;;;;;;;15.93;100.00;100328.19;5049728;28;20247;-62
2022/11/01 10:25:27;;;;;;;4.47;1.33;;;;;;;15.84;100.00;100322.84;5032759;28;20192;-61
2022/11/01 10:28:17;;;;;;;2.30;1.50;;;;;;;16.02;100.00;100320.69;5049848;28;20238;-61
2022/11/01 10:30:47;;;;;;;2.73;1.30;;;;;;;16.06;100.00;100329.88;5039193;28;20674;-61
2022/11/01 10:33:34;;;;;;;4.13;1.13;;;;;;;16.05;100.00;100334.25;5050315;28;20185;-62
2022/11/01 10:36:04;;;;;;;3.77;1.30;;;;;;;16.06;100.00;100328.13;5050983;28;20225;-61
2022/11/01 10:38:43;;;;;;;3.57;1.23;;;;;;;16.04;100.00;100331.75;5050735;28;20205;-61
2022/11/01 10:41:09;;;;;;;3.57;1.20;;;;;;;15.89;100.00;100321.59;5035621;28;20237;-62
2022/11/01 10:43:40;;;;;;;2.93;1.10;;;;;;;15.88;100.00;100330.31;5041257;28;20607;-61
2022/11/01 10:46:07;;;;;;;5.40;1.83;;;;;;;15.77;100.00;100341.44;5058131;28;20595;-60
2022/11/01 10:48:37;;;;;;;2.40;1.00;;;;;;;15.85;100.00;100329.69;5049958;28;20254;-61
2022/11/01 10:51:06;;;;;;;2.97;1.30;;;;;;;15.91;100.00;100337.03;5040472;28;20300;-61
2022/11/01 10:53:37;;;;;;;3.83;1.13;;;;;;;16.00;100.00;100332.94;5047147;28;20272;-60
2022/11/01 10:56:08;;;;;;;9.13;1.63;;;;;;;15.81;98.26;100331.66;5050939;28;20284;-69
2022/11/01 10:58:41;;;;;;;3.33;1.40;;;;;;;15.91;100.00;100324.06;5036682;28;20268;-69
2022/11/01 11:01:11;;;;;;;2.23;1.10;;;;;;;15.74;100.00;100325.25;5017115;28;20912;-68
2022/11/01 11:03:40;;;;;;;3.33;1.13;;;;;;;15.93;100.00;100327.38;5030738;28;20223;-70
2022/11/01 11:06:10;;;;;;;4.43;1.30;;;;;;;15.89;96.30;100323.34;5046189;28;20706;-69
2022/11/01 11:08:38;;;;;;;2.43;1.60;;;;;;;15.94;97.92;100326.44;5032656;28;20177;-68
2022/11/01 11:11:10;;;;;;;2.43;1.00;;;;;;;16.04;99.11;100322.22;5026992;28;20575;-68
2022/11/01 11:13:38;;;;;;;3.27;1.53;;;;;;;15.89;98.47;100311.22;5028717;28;20296;-68
2022/11/01 11:16:04;;;;;;;3.30;1.27;;;;;;;15.89;99.98;100319.00;5035086;28;20643;-69
2022/11/01 11:18:37;;;;;;;14.00;1.33;;;;;;;15.88;96.19;100321.72;5036497;28;20180;-70
2022/11/01 11:21:12;;;;;;;5.87;1.37;;;;;;;15.84;95.73;100328.03;5037459;28;20640;-70
2022/11/01 11:23:44;;;;;;;2.40;0.90;;;;;;;15.94;96.16;100321.25;5049859;28;20177;-70